LTBI/ESK METAR and TAF weather

Enter ICAO airport designator
Station Type Date Time Source
LTBI METAR 2019/06/18 04:50 UTC NOAA

LTBI 180450Z 00000KT 9999 SCT040 BKN100 18/16 Q1014 NOSIG RMK RWY08 26005KT


Station Type Date Time Source
LTBI Decoded METAR 2019/06/18 04:50 UTC NOAA

Eskisehir, Turkey (LTBI) 39-47N 030-34E 785M
Jun 18, 2019 - 12:50 AM EDT / 2019.06.18 0450 UTC
Wind: Calm:0
Visibility: greater than 7 mile(s):0
Sky conditions: mostly cloudy
Temperature: 64 F (18 C)
Dew Point: 60 F (16 C)
Relative Humidity: 88%
Pressure (altimeter): 29.94 in. Hg (1014 hPa)
ob: LTBI 180450Z 00000KT 9999 SCT040 BKN100 18/16 Q1014 NOSIG RMK RWY08 26005KT
cycle: 5

Station Type Date Time Source
LTBI TAF 2012/05/11 09:09 UTC NOAA

TAF LTBI 110740Z 1109/1121 VRB02KT 6000 -SHRA BKN030 BKN090
TEMPO 1112/1116 33015KT 4000 -TSRA FEW025CB BKN030

Example: see airport list